createdAt,value
2023-03-17T00:01:51.670Z,6.50
2023-03-17T00:06:56.894Z,6.48
2023-03-17T00:12:00.360Z,6.44
2023-03-17T00:17:03.251Z,6.46
2023-03-17T00:22:13.960Z,6.42
2023-03-17T00:27:18.156Z,6.40
2023-03-17T00:32:22.835Z,6.37
2023-03-17T00:37:27.577Z,6.43
2023-03-17T00:42:31.768Z,6.47
2023-03-17T00:47:34.551Z,6.42
2023-03-17T00:52:37.331Z,6.41
2023-03-17T00:57:41.463Z,6.38
2023-03-17T01:02:45.242Z,6.42
2023-03-17T01:07:53.113Z,6.41
2023-03-17T01:12:58.222Z,6.40
2023-03-17T01:18:03.042Z,6.46
2023-03-17T01:23:06.009Z,6.38
2023-03-17T01:28:14.513Z,6.43
2023-03-17T01:33:17.414Z,6.36
2023-03-17T01:38:20.354Z,6.32
2023-03-17T01:43:27.941Z,6.29
2023-03-17T01:48:35.362Z,6.26
2023-03-17T01:53:39.947Z,6.29
2023-03-17T01:58:45.801Z,6.29
2023-03-17T02:03:48.950Z,6.21
2023-03-17T02:08:52.396Z,6.23
2023-03-17T02:13:55.302Z,6.16
2023-03-17T02:18:58.238Z,6.15
2023-03-17T02:24:05.606Z,6.18
2023-03-17T02:29:08.604Z,6.17
2023-03-17T02:34:12.070Z,6.20
2023-03-17T02:39:14.870Z,6.16
2023-03-17T02:44:18.287Z,6.20
2023-03-17T02:49:42.134Z,6.28
2023-03-17T02:54:44.985Z,6.26
2023-03-17T02:59:47.840Z,6.24
2023-03-17T03:04:51.002Z,6.25
2023-03-17T03:09:53.832Z,6.30
2023-03-17T03:14:56.694Z,6.25
2023-03-17T03:20:00.260Z,6.21
2023-03-17T03:25:03.277Z,6.13
2023-03-17T03:30:08.233Z,6.07
2023-03-17T03:35:11.821Z,6.13
2023-03-17T03:40:14.942Z,6.23
2023-03-17T03:45:18.523Z,6.20
2023-03-17T03:50:22.112Z,6.21
2023-03-17T03:55:25.237Z,6.20
2023-03-17T04:00:28.358Z,6.23
2023-03-17T04:05:31.542Z,6.15
2023-03-17T04:10:34.800Z,6.07
2023-03-17T04:15:37.819Z,6.12
2023-03-17T04:20:40.939Z,6.18
2023-03-17T04:25:43.915Z,6.13
2023-03-17T04:30:47.238Z,6.20
2023-03-17T04:35:50.072Z,6.26
2023-03-17T04:40:53.141Z,6.21
2023-03-17T04:45:56.383Z,6.20
2023-03-17T04:50:59.696Z,6.18
2023-03-17T04:56:02.556Z,6.22
2023-03-17T05:01:05.705Z,6.27
2023-03-17T05:06:27.070Z,6.31
2023-03-17T05:11:30.007Z,6.16
2023-03-17T05:16:33.072Z,6.25
2023-03-17T05:21:35.902Z,6.12
2023-03-17T05:26:39.073Z,6.07
2023-03-17T05:32:00.189Z,6.06
2023-03-17T05:37:03.646Z,5.89
2023-03-17T05:42:07.016Z,5.67
2023-03-17T05:47:09.896Z,5.77
2023-03-17T05:52:13.096Z,5.71
2023-03-17T05:57:16.501Z,5.63
2023-03-17T06:02:19.494Z,5.70
2023-03-17T06:07:22.885Z,5.74
2023-03-17T06:12:26.043Z,5.78
2023-03-17T06:17:28.922Z,5.82
2023-03-17T06:22:32.140Z,5.98
2023-03-17T06:27:35.106Z,6.11
2023-03-17T06:32:38.209Z,6.05
2023-03-17T06:37:41.806Z,6.21
2023-03-17T06:42:44.709Z,6.32
2023-03-17T06:47:47.574Z,6.48
2023-03-17T06:52:51.006Z,6.61
2023-03-17T06:58:13.426Z,6.76
2023-03-17T07:03:17.149Z,6.89
2023-03-17T07:08:20.233Z,6.85
2023-03-17T07:13:23.760Z,6.91
2023-03-17T07:18:27.158Z,7.03
2023-03-17T07:23:30.871Z,7.13
2023-03-17T07:28:34.236Z,7.10
2023-03-17T07:33:57.690Z,7.13
2023-03-17T07:39:01.716Z,7.44
2023-03-17T07:44:04.857Z,7.68
2023-03-17T07:49:07.880Z,7.46
2023-03-17T07:54:14.907Z,7.51
2023-03-17T07:59:18.523Z,7.44
2023-03-17T08:04:21.346Z,7.43
2023-03-17T08:09:24.303Z,7.29
2023-03-17T08:14:27.259Z,7.45
2023-03-17T08:19:48.625Z,7.30
2023-03-17T08:24:52.391Z,7.42
2023-03-17T08:29:55.990Z,7.61
2023-03-17T08:34:59.003Z,7.61
2023-03-17T08:40:01.840Z,7.61
2023-03-17T08:45:06.988Z,7.68
2023-03-17T08:50:15.795Z,7.61
2023-03-17T08:55:19.733Z,7.66
2023-03-17T09:00:23.030Z,7.57
2023-03-17T09:05:26.922Z,7.52
2023-03-17T09:10:30.638Z,7.51
2023-03-17T09:15:37.832Z,7.28
2023-03-17T09:20:40.900Z,7.30
2023-03-17T09:25:43.814Z,7.29
2023-03-17T09:30:47.048Z,7.30
2023-03-17T09:35:52.511Z,7.34
2023-03-17T09:41:23.686Z,7.41
2023-03-17T09:46:45.225Z,7.31
2023-03-17T09:51:49.943Z,7.42
2023-03-17T09:57:02.597Z,7.41
2023-03-17T10:02:27.277Z,7.36
2023-03-17T10:08:19.055Z,7.34
2023-03-17T10:13:48.631Z,7.29
2023-03-17T10:19:35.569Z,7.05
2023-03-17T10:24:43.396Z,6.83
2023-03-17T10:29:48.523Z,6.79
2023-03-17T10:34:52.116Z,6.87
2023-03-17T10:39:57.516Z,6.95
2023-03-17T10:45:13.459Z,7.00
2023-03-17T10:50:16.690Z,7.05
2023-03-17T10:55:22.484Z,7.01
2023-03-17T11:05:33.495Z,7.09
2023-03-17T11:10:57.169Z,7.08
2023-03-17T11:16:22.427Z,6.92
2023-03-17T11:21:48.767Z,6.83
2023-03-17T11:27:16.514Z,6.78
2023-03-17T11:32:45.833Z,6.59
2023-03-17T11:38:04.415Z,6.39
2023-03-17T11:43:16.257Z,6.31
2023-03-17T11:48:37.787Z,6.17
2023-03-17T11:54:14.510Z,6.15
2023-03-17T11:59:38.513Z,6.13
2023-03-17T12:05:10.827Z,6.02
2023-03-17T12:10:22.727Z,5.83
2023-03-17T12:15:36.852Z,5.68
2023-03-17T12:20:49.626Z,5.47
2023-03-17T12:26:00.379Z,5.49
2023-03-17T12:31:06.949Z,5.66
2023-03-17T12:36:15.216Z,5.60
2023-03-17T12:41:33.674Z,5.53
2023-03-17T12:46:39.752Z,5.54
2023-03-17T12:52:10.518Z,5.53
2023-03-17T12:57:20.909Z,5.44
2023-03-17T13:02:29.827Z,5.32
2023-03-17T13:08:00.037Z,5.26
2023-03-17T13:13:21.913Z,5.14
2023-03-17T13:18:47.444Z,4.97
2023-03-17T13:24:23.026Z,5.21
2023-03-17T13:29:46.338Z,5.30
2023-03-17T13:34:56.355Z,5.28
2023-03-17T13:40:10.797Z,5.30
2023-03-17T13:45:24.680Z,5.23
2023-03-17T13:50:46.920Z,5.28
2023-03-17T13:56:28.097Z,5.38
2023-03-17T14:01:59.900Z,5.38
2023-03-17T14:07:11.587Z,5.38
2023-03-17T14:12:39.767Z,5.40
2023-03-17T14:17:50.768Z,5.36
2023-03-17T14:23:01.499Z,5.38
2023-03-17T14:28:10.020Z,5.10
2023-03-17T14:33:31.544Z,5.04
2023-03-17T14:38:37.910Z,5.12
2023-03-17T14:43:41.944Z,5.16
2023-03-17T14:48:47.502Z,4.97
2023-03-17T14:53:52.627Z,4.71
2023-03-17T14:59:04.380Z,4.65
2023-03-17T15:04:17.573Z,4.64
2023-03-17T15:09:27.292Z,4.64
2023-03-17T15:14:39.065Z,4.73
2023-03-17T15:19:49.203Z,4.74
2023-03-17T15:25:00.242Z,4.84
2023-03-17T15:30:03.597Z,4.83
2023-03-17T15:35:08.153Z,4.83
2023-03-17T15:40:11.911Z,4.77
2023-03-17T15:45:17.247Z,4.74
2023-03-17T15:50:28.721Z,4.65
2023-03-17T15:55:31.963Z,4.67
2023-03-17T16:00:35.155Z,4.63
2023-03-17T16:05:38.029Z,4.71
2023-03-17T16:10:41.507Z,4.71
2023-03-17T16:15:53.126Z,4.75
2023-03-17T16:20:57.247Z,4.72
2023-03-17T16:26:13.702Z,4.64
2023-03-17T16:31:19.949Z,4.56
2023-03-17T16:36:24.582Z,4.53
2023-03-17T16:41:28.567Z,4.45
2023-03-17T16:46:35.500Z,4.43
2023-03-17T16:51:38.613Z,4.37
2023-03-17T16:56:42.448Z,4.21
2023-03-17T17:01:45.445Z,4.10
2023-03-17T17:06:48.404Z,3.97
2023-03-17T17:12:10.456Z,3.68
2023-03-17T17:17:13.895Z,3.50
2023-03-17T17:22:16.953Z,3.51
2023-03-17T17:27:19.784Z,3.33
2023-03-17T17:32:24.463Z,3.09
2023-03-17T17:37:27.678Z,3.05
2023-03-17T17:42:30.888Z,3.11
2023-03-17T17:47:33.817Z,2.88
2023-03-17T17:52:36.804Z,2.74
2023-03-17T17:57:39.757Z,2.66
2023-03-17T18:02:43.119Z,2.64
2023-03-17T18:07:46.009Z,2.67
2023-03-17T18:13:07.874Z,2.52
2023-03-17T18:18:11.152Z,2.43
2023-03-17T18:23:16.200Z,2.43
2023-03-17T18:28:19.047Z,2.34
2023-03-17T18:33:22.781Z,2.13
2023-03-17T18:38:25.779Z,2.04
2023-03-17T18:43:28.789Z,2.01
2023-03-17T18:48:31.716Z,1.88
2023-03-17T18:53:53.336Z,1.77
2023-03-17T18:58:57.485Z,1.65
2023-03-17T19:04:00.494Z,1.53
2023-03-17T19:09:03.990Z,1.49
2023-03-17T19:14:08.710Z,1.23
2023-03-17T19:19:11.622Z,1.11
2023-03-17T19:24:15.177Z,1.14
2023-03-17T19:29:18.050Z,0.96
2023-03-17T19:34:21.475Z,0.97
2023-03-17T19:39:24.450Z,0.92
2023-03-17T19:44:27.479Z,0.93
2023-03-17T19:49:30.315Z,0.83
2023-03-17T19:54:33.427Z,0.88
2023-03-17T19:59:36.236Z,0.73
2023-03-17T20:04:39.134Z,0.86
2023-03-17T20:09:42.524Z,0.83
2023-03-17T20:14:45.393Z,0.71
2023-03-17T20:19:48.335Z,0.79
2023-03-17T20:24:51.383Z,0.72
2023-03-17T20:29:54.873Z,0.67
2023-03-17T20:34:58.512Z,0.59
2023-03-17T20:40:03.220Z,0.56
2023-03-17T20:45:07.681Z,0.49
2023-03-17T20:50:31.165Z,0.52
2023-03-17T20:55:34.196Z,0.46
2023-03-17T21:00:37.324Z,0.46
2023-03-17T21:05:40.818Z,0.34
2023-03-17T21:10:43.797Z,0.34
2023-03-17T21:15:47.623Z,0.33
2023-03-17T21:20:51.075Z,0.41
2023-03-17T21:25:57.088Z,0.36
2023-03-17T21:31:02.719Z,0.30
2023-03-17T21:36:07.052Z,0.34
2023-03-17T21:41:34.262Z,0.31
2023-03-17T21:46:37.446Z,0.33
2023-03-17T21:51:40.818Z,0.31
2023-03-17T21:56:44.744Z,0.31
2023-03-17T22:01:48.020Z,0.37
2023-03-17T22:06:52.288Z,0.37
2023-03-17T22:11:55.306Z,0.38
2023-03-17T22:16:58.226Z,0.41
2023-03-17T22:22:02.131Z,0.35
2023-03-17T22:27:06.109Z,0.41
2023-03-17T22:32:09.279Z,0.41
2023-03-17T22:37:13.373Z,0.38
2023-03-17T22:42:16.773Z,0.44
2023-03-17T22:47:19.640Z,0.52
2023-03-17T22:52:22.524Z,0.52
2023-03-17T22:57:25.559Z,0.48
2023-03-17T23:02:28.417Z,0.47
2023-03-17T23:07:35.557Z,0.44
2023-03-17T23:12:44.266Z,0.60
2023-03-17T23:17:47.669Z,0.56
2023-03-17T23:22:50.705Z,0.57
2023-03-17T23:27:53.684Z,0.43
2023-03-17T23:32:56.658Z,0.47
2023-03-17T23:38:00.458Z,0.41
2023-03-17T23:43:21.981Z,0.41
2023-03-17T23:48:24.745Z,0.34
2023-03-17T23:53:28.626Z,0.32
2023-03-17T23:58:32.140Z,0.28
